createdAt,value
2019-05-06T00:02:37.626Z,1014.25
2019-05-06T00:17:37.837Z,1014.18
2019-05-06T00:32:37.968Z,1014.28
2019-05-06T00:47:38.390Z,1014.28
2019-05-06T01:02:38.510Z,1014.38
2019-05-06T01:17:38.746Z,1014.40
2019-05-06T01:32:39.034Z,1014.46
2019-05-06T01:47:39.355Z,1014.49
2019-05-06T02:02:39.541Z,1014.58
2019-05-06T02:17:39.862Z,1014.67
2019-05-06T02:32:39.995Z,1014.64
2019-05-06T02:47:43.042Z,1014.52
2019-05-06T03:02:47.719Z,1014.63
2019-05-06T03:17:48.817Z,1014.61
2019-05-06T03:33:28.207Z,1014.68
2019-05-06T03:47:54.451Z,1014.79
2019-05-06T04:02:56.902Z,1014.92
2019-05-06T04:17:58.396Z,1014.88
2019-05-06T04:32:58.661Z,1014.94
2019-05-06T04:47:59.044Z,1014.95
2019-05-06T05:02:59.615Z,1015.06
2019-05-06T05:18:02.802Z,1015.02
2019-05-06T05:33:03.456Z,1014.97
2019-05-06T05:48:03.689Z,1015.08
2019-05-06T06:03:06.768Z,1015.11
2019-05-06T06:18:07.143Z,1015.12
2019-05-06T06:33:07.302Z,1015.14
2019-05-06T06:48:07.540Z,1015.11
2019-05-06T07:03:07.683Z,1015.11
2019-05-06T07:18:07.800Z,1015.03
2019-05-06T07:33:08.014Z,1015.08
2019-05-06T07:48:08.210Z,1015.00
2019-05-06T08:03:08.463Z,1014.97
2019-05-06T08:18:08.635Z,1014.92
2019-05-06T08:33:08.850Z,1014.86
2019-05-06T08:48:09.043Z,1014.79
2019-05-06T09:03:09.283Z,1014.87
2019-05-06T09:18:09.463Z,1014.69
2019-05-06T09:33:09.701Z,1014.69
2019-05-06T09:48:12.637Z,1014.59
2019-05-06T10:03:13.140Z,1014.47
2019-05-06T10:18:13.605Z,1014.28
2019-05-06T10:33:13.401Z,1014.32
2019-05-06T10:48:13.504Z,1014.36
2019-05-06T11:03:14.972Z,1014.11
2019-05-06T11:18:14.845Z,1014.11
2019-05-06T11:33:14.952Z,1014.05
2019-05-06T11:48:15.123Z,1014.10
2019-05-06T12:03:15.314Z,1014.05
2019-05-06T12:18:15.441Z,1014.04
2019-05-06T12:33:15.631Z,1013.97
2019-05-06T12:48:15.811Z,1013.93
2019-05-06T13:03:15.996Z,1013.88
2019-05-06T13:18:16.119Z,1013.73
2019-05-06T13:33:16.513Z,1013.70
2019-05-06T13:48:16.424Z,1013.49
2019-05-06T14:03:17.628Z,1013.54
2019-05-06T14:18:17.799Z,1013.46
2019-05-06T14:33:17.976Z,1013.53
2019-05-06T14:48:18.141Z,1013.66
2019-05-06T15:03:18.336Z,1013.70
2019-05-06T15:18:19.017Z,1013.81
2019-05-06T15:33:19.167Z,1013.89
2019-05-06T15:48:19.350Z,1013.94
2019-05-06T16:03:19.511Z,1014.11
2019-05-06T16:18:19.818Z,1014.16
2019-05-06T16:33:21.915Z,1014.21
2019-05-06T16:48:22.748Z,1014.20
2019-05-06T17:03:23.200Z,1014.18
2019-05-06T17:18:24.167Z,1014.37
2019-05-06T17:33:24.213Z,1014.32
2019-05-06T17:48:27.568Z,1014.55
2019-05-06T18:03:27.703Z,1014.32
2019-05-06T18:18:29.020Z,1014.42
2019-05-06T18:33:29.222Z,1014.42
2019-05-06T18:48:31.673Z,1014.80
2019-05-06T19:03:34.694Z,1014.96
2019-05-06T19:18:34.869Z,1015.02
2019-05-06T19:33:35.072Z,1015.22
2019-05-06T19:48:35.213Z,1015.27
2019-05-06T20:03:35.382Z,1015.22
2019-05-06T20:18:35.605Z,1015.20
2019-05-06T20:33:35.819Z,1015.03
2019-05-06T20:48:36.137Z,1014.90
2019-05-06T21:03:36.351Z,1014.98
2019-05-06T21:18:36.485Z,1014.90
2019-05-06T21:33:36.766Z,1014.90
2019-05-06T21:48:37.058Z,1014.88
2019-05-06T22:03:37.356Z,1014.73
2019-05-06T22:18:37.405Z,1014.63
2019-05-06T22:33:37.673Z,1014.66
2019-05-06T22:48:37.811Z,1014.60
2019-05-06T23:03:37.971Z,1014.57
2019-05-06T23:18:38.188Z,1014.76
2019-05-06T23:33:38.435Z,1014.78
2019-05-06T23:48:38.718Z,1014.81
